Time;durP1;ratioP1;P1;durP2;ratioP2;P2;SDS_P1;SDS_P2;PMS_P1;PMS_P2;Temp;Humidity;BMP_temperature;BMP_pressure;BME280_temperature;BME280_humidity;BME280_pressure;Samples;Min_cycle;Max_cycle;Signal;HPM_P1;HPM_P2
2021/04/18 00:01:56;;;;;;;28.20;26.10;;;;;;;;;;5076344;28;20416;-72
2021/04/18 00:04:23;;;;;;;28.07;25.67;;;;;;;;;;5076679;28;20437;-72
2021/04/18 00:06:50;;;;;;;28.10;25.47;;;;;;;;;;5076354;28;20951;-71
2021/04/18 00:09:17;;;;;;;26.50;24.70;;;;;;;;;;5076456;28;20837;-72
2021/04/18 00:11:44;;;;;;;26.50;24.57;;;;;;;;;;5076529;28;20404;-72
2021/04/18 00:14:11;;;;;;;26.70;24.53;;;;;;;;;;5076252;28;20550;-72
2021/04/18 00:16:38;;;;;;;26.63;24.93;;;;;;;;;;5076354;28;20428;-72
2021/04/18 00:19:06;;;;;;;27.50;25.70;;;;;;;;;;5075931;28;20965;-71
2021/04/18 00:21:33;;;;;;;27.87;25.87;;;;;;;;;;5075950;28;20420;-72
2021/04/18 00:24:00;;;;;;;28.00;25.90;;;;;;;;;;5075979;28;20409;-72
2021/04/18 00:26:27;;;;;;;27.67;25.57;;;;;;;;;;5075709;28;20776;-72
2021/04/18 00:28:53;;;;;;;27.60;25.50;;;;;;;;;;5076124;28;20427;-71
2021/04/18 00:31:20;;;;;;;27.30;25.20;;;;;;;;;;5075864;28;20472;-72
2021/04/18 00:33:47;;;;;;;27.53;25.53;;;;;;;;;;5075983;28;20464;-72
2021/04/18 00:36:15;;;;;;;29.33;26.77;;;;;;;;;;5076534;28;20437;-72
2021/04/18 00:38:42;;;;;;;27.87;25.87;;;;;;;;;;5076441;28;20811;-72
2021/04/18 00:41:09;;;;;;;28.97;26.70;;;;;;;;;;5076196;28;20430;-72
2021/04/18 00:43:40;;;;;;;28.13;26.13;;;;;;;;;;5075875;28;20463;-72
2021/04/18 00:46:07;;;;;;;28.40;26.10;;;;;;;;;;5075555;28;20521;-72
2021/04/18 00:48:35;;;;;;;28.40;26.20;;;;;;;;;;5075582;28;20796;-72
2021/04/18 00:51:02;;;;;;;28.40;26.17;;;;;;;;;;5074503;28;20917;-72
2021/04/18 00:53:30;;;;;;;29.27;26.90;;;;;;;;;;5075358;28;20924;-72
2021/04/18 00:55:57;;;;;;;28.43;26.27;;;;;;;;;;5075368;28;20487;-71
2021/04/18 00:58:24;;;;;;;29.87;27.37;;;;;;;;;;5075220;28;20415;-72
2021/04/18 01:00:51;;;;;;;28.37;26.10;;;;;;;;;;5075463;28;20457;-72
2021/04/18 01:03:18;;;;;;;28.60;26.50;;;;;;;;;;5075487;28;20407;-72
2021/04/18 01:05:45;;;;;;;27.43;25.33;;;;;;;;;;5075152;28;20408;-72
2021/04/18 01:08:13;;;;;;;28.33;25.80;;;;;;;;;;5073766;28;20479;-72
2021/04/18 01:10:41;;;;;;;27.97;26.07;;;;;;;;;;5075338;28;20424;-72
2021/04/18 01:13:08;;;;;;;28.17;25.90;;;;;;;;;;5074916;28;20455;-72
2021/04/18 01:15:35;;;;;;;28.70;26.30;;;;;;;;;;5075211;28;20821;-72
2021/04/18 01:18:02;;;;;;;28.40;26.07;;;;;;;;;;5075226;28;20464;-72
2021/04/18 01:20:28;;;;;;;27.67;25.60;;;;;;;;;;5074837;28;20448;-72
2021/04/18 01:22:56;;;;;;;28.50;26.40;;;;;;;;;;5075057;28;20779;-72
2021/04/18 01:25:23;;;;;;;27.47;25.47;;;;;;;;;;5075018;28;20453;-72
2021/04/18 01:27:50;;;;;;;28.30;26.30;;;;;;;;;;5074498;28;20445;-72
2021/04/18 01:30:18;;;;;;;27.63;25.77;;;;;;;;;;5074608;28;20441;-72
2021/04/18 01:32:46;;;;;;;28.57;26.27;;;;;;;;;;5074849;28;20470;-72
2021/04/18 01:35:14;;;;;;;27.03;24.90;;;;;;;;;;5074933;28;20416;-72
2021/04/18 01:37:41;;;;;;;28.83;26.33;;;;;;;;;;5074573;28;20442;-72
2021/04/18 01:40:11;;;;;;;27.97;25.60;;;;;;;;;;5074459;28;20412;-72
2021/04/18 01:42:37;;;;;;;28.23;26.07;;;;;;;;;;5074964;28;20445;-71
2021/04/18 01:45:05;;;;;;;27.33;25.43;;;;;;;;;;5074386;28;20408;-72
2021/04/18 01:47:32;;;;;;;29.37;26.97;;;;;;;;;;5074638;28;20418;-72
2021/04/18 01:49:59;;;;;;;29.13;26.83;;;;;;;;;;5074750;28;20416;-72
2021/04/18 01:52:26;;;;;;;27.50;25.37;;;;;;;;;;5074481;28;20757;-72
2021/04/18 01:54:53;;;;;;;27.23;25.23;;;;;;;;;;5074208;28;20437;-72
2021/04/18 01:57:20;;;;;;;28.50;26.20;;;;;;;;;;5073145;28;20455;-71
2021/04/18 01:59:47;;;;;;;27.70;25.73;;;;;;;;;;5074381;28;20437;-72
2021/04/18 02:02:15;;;;;;;28.37;26.03;;;;;;;;;;5073829;28;20443;-72
2021/04/18 02:04:42;;;;;;;28.83;26.60;;;;;;;;;;5074325;28;20440;-71
2021/04/18 02:07:09;;;;;;;28.20;25.90;;;;;;;;;;5074066;28;20971;-72
2021/04/18 02:09:36;;;;;;;27.73;25.70;;;;;;;;;;5074218;28;20994;-72
2021/04/18 02:12:05;;;;;;;27.43;25.13;;;;;;;;;;5074740;28;20905;-72
2021/04/18 02:14:33;;;;;;;27.13;25.00;;;;;;;;;;5072892;28;20553;-72
2021/04/18 02:17:01;;;;;;;27.20;25.20;;;;;;;;;;5073852;28;20445;-72
2021/04/18 02:19:28;;;;;;;28.53;26.43;;;;;;;;;;5074059;28;20822;-72
2021/04/18 02:21:55;;;;;;;29.60;27.33;;;;;;;;;;5074061;28;20491;-72
2021/04/18 02:24:22;;;;;;;29.13;26.70;;;;;;;;;;5074249;28;20441;-72
2021/04/18 02:26:49;;;;;;;28.03;25.83;;;;;;;;;;5073501;28;20423;-72
2021/04/18 02:29:16;;;;;;;28.23;25.80;;;;;;;;;;5073870;28;20415;-72
2021/04/18 02:31:44;;;;;;;29.10;27.20;;;;;;;;;;5073831;28;20441;-71
2021/04/18 02:34:11;;;;;;;26.70;24.87;;;;;;;;;;5073541;28;20531;-72
2021/04/18 02:36:38;;;;;;;27.83;25.60;;;;;;;;;;5073567;28;20436;-72
2021/04/18 02:39:05;;;;;;;28.47;26.10;;;;;;;;;;5074006;28;20449;-72
2021/04/18 02:41:32;;;;;;;27.13;25.00;;;;;;;;;;5073936;28;20488;-72
2021/04/18 02:43:59;;;;;;;28.60;26.50;;;;;;;;;;5072624;28;20415;-72
2021/04/18 02:46:26;;;;;;;28.63;26.10;;;;;;;;;;5073393;28;20446;-72
2021/04/18 02:48:54;;;;;;;27.17;25.33;;;;;;;;;;5073736;28;20454;-71
2021/04/18 02:51:21;;;;;;;28.37;26.30;;;;;;;;;;5073306;28;20442;-71
2021/04/18 02:53:48;;;;;;;28.37;26.33;;;;;;;;;;5073658;28;20539;-72
2021/04/18 02:56:15;;;;;;;28.83;26.83;;;;;;;;;;5073656;28;20455;-72
2021/04/18 02:58:41;;;;;;;27.67;25.60;;;;;;;;;;5073495;28;20437;-72
2021/04/18 03:01:08;;;;;;;29.33;26.87;;;;;;;;;;5073503;28;20496;-72
2021/04/18 03:03:35;;;;;;;29.30;27.10;;;;;;;;;;5073559;28;20452;-71
2021/04/18 03:06:03;;;;;;;28.03;25.77;;;;;;;;;;5072355;28;20420;-72
2021/04/18 03:08:30;;;;;;;27.60;25.57;;;;;;;;;;5075886;28;20469;-72
2021/04/18 03:10:57;;;;;;;28.23;26.27;;;;;;;;;;5077358;28;20419;-72
2021/04/18 03:13:24;;;;;;;28.87;26.60;;;;;;;;;;5077204;28;20982;-72
2021/04/18 03:15:51;;;;;;;28.70;26.50;;;;;;;;;;5077551;28;20933;-72
2021/04/18 03:18:18;;;;;;;29.23;26.83;;;;;;;;;;5077389;28;20423;-72
2021/04/18 03:20:45;;;;;;;28.27;26.20;;;;;;;;;;5077434;28;20423;-71
2021/04/18 03:23:12;;;;;;;30.03;27.60;;;;;;;;;;5077399;28;20404;-72
2021/04/18 03:25:39;;;;;;;28.47;26.13;;;;;;;;;;5077013;28;20441;-72
2021/04/18 03:28:06;;;;;;;28.63;26.60;;;;;;;;;;5077132;28;20419;-71
2021/04/18 03:30:35;;;;;;;30.37;27.73;;;;;;;;;;5076911;28;20408;-71
2021/04/18 03:33:02;;;;;;;28.10;26.10;;;;;;;;;;5077172;28;20492;-72
2021/04/18 03:35:29;;;;;;;28.13;25.83;;;;;;;;;;5077105;28;20433;-72
2021/04/18 03:37:56;;;;;;;28.83;26.43;;;;;;;;;;5076977;28;20403;-72
2021/04/18 03:40:24;;;;;;;30.30;27.20;;;;;;;;;;5076990;28;20445;-72
2021/04/18 03:42:51;;;;;;;28.37;26.17;;;;;;;;;;5075861;28;20449;-72
2021/04/18 03:45:18;;;;;;;27.97;25.90;;;;;;;;;;5076948;28;20457;-72
2021/04/18 03:47:44;;;;;;;27.85;25.70;;;;;;;;;;5076980;28;20460;-72
2021/04/18 03:50:12;;;;;;;28.60;26.67;;;;;;;;;;5077539;28;20249;-72
2021/04/18 03:52:39;;;;;;;28.73;26.37;;;;;;;;;;5076482;28;20538;-71
2021/04/18 03:55:07;;;;;;;27.23;25.37;;;;;;;;;;5077487;28;20478;-71
2021/04/18 03:57:34;;;;;;;28.23;26.33;;;;;;;;;;5076703;28;20441;-71
2021/04/18 04:00:01;;;;;;;28.10;25.90;;;;;;;;;;5076610;28;20894;-72
2021/04/18 04:02:28;;;;;;;28.07;25.80;;;;;;;;;;5076705;28;20862;-72
2021/04/18 04:04:55;;;;;;;28.20;25.40;;;;;;;;;;5076377;28;20435;-73
2021/04/18 04:07:22;;;;;;;27.97;25.90;;;;;;;;;;5076468;28;20839;-71
2021/04/18 04:09:49;;;;;;;28.97;26.80;;;;;;;;;;5076463;28;20467;-72
2021/04/18 04:12:16;;;;;;;29.50;27.27;;;;;;;;;;5076431;28;20416;-72
2021/04/18 04:14:44;;;;;;;27.67;25.77;;;;;;;;;;5076098;28;20485;-72
2021/04/18 04:17:11;;;;;;;29.57;27.37;;;;;;;;;;5076357;28;20457;-72
2021/04/18 04:19:38;;;;;;;29.37;27.10;;;;;;;;;;5075705;28;20405;-72
2021/04/18 04:22:04;;;;;;;28.90;26.33;;;;;;;;;;5075961;28;20913;-72
2021/04/18 04:24:31;;;;;;;28.40;26.00;;;;;;;;;;5076262;28;20769;-72
2021/04/18 04:26:58;;;;;;;28.03;26.00;;;;;;;;;;5075674;28;20191;-72
2021/04/18 04:29:25;;;;;;;29.70;27.23;;;;;;;;;;5075772;28;20416;-72
2021/04/18 04:31:53;;;;;;;28.13;26.20;;;;;;;;;;5075798;28;20412;-72
2021/04/18 04:34:20;;;;;;;27.50;25.40;;;;;;;;;;5075959;28;20483;-72
2021/04/18 04:36:47;;;;;;;28.23;25.80;;;;;;;;;;5076294;28;20488;-72
2021/04/18 04:39:14;;;;;;;28.93;26.50;;;;;;;;;;5075841;28;20427;-72
2021/04/18 04:41:41;;;;;;;30.20;27.50;;;;;;;;;;5075668;28;20440;-72
2021/04/18 04:44:08;;;;;;;28.43;26.53;;;;;;;;;;5075568;28;20422;-72
2021/04/18 04:46:35;;;;;;;28.27;25.80;;;;;;;;;;5075828;28;20441;-71
2021/04/18 04:49:03;;;;;;;29.73;27.43;;;;;;;;;;5075791;28;20423;-71
2021/04/18 04:51:30;;;;;;;29.90;27.50;;;;;;;;;;5075650;28;20427;-71
2021/04/18 04:53:57;;;;;;;31.73;28.50;;;;;;;;;;5075709;28;20484;-72
2021/04/18 04:56:24;;;;;;;30.73;27.80;;;;;;;;;;5074972;28;20484;-71
2021/04/18 04:58:50;;;;;;;29.07;26.97;;;;;;;;;;5075580;28;20437;-72
2021/04/18 05:01:17;;;;;;;29.23;26.73;;;;;;;;;;5075526;28;20965;-71
2021/04/18 05:03:44;;;;;;;28.60;26.50;;;;;;;;;;5075496;28;20468;-72
2021/04/18 05:06:12;;;;;;;30.53;28.33;;;;;;;;;;5075433;28;20485;-71
2021/04/18 05:08:40;;;;;;;29.87;27.60;;;;;;;;;;5074098;28;20441;-72
2021/04/18 05:11:07;;;;;;;29.90;27.60;;;;;;;;;;5075160;28;20396;-71
2021/04/18 05:13:34;;;;;;;30.50;28.20;;;;;;;;;;5075321;28;20584;-71
2021/04/18 05:16:01;;;;;;;30.30;27.90;;;;;;;;;;5075416;28;20451;-72
2021/04/18 05:18:28;;;;;;;30.67;28.27;;;;;;;;;;5075446;28;20444;-72
2021/04/18 05:20:55;;;;;;;31.47;28.60;;;;;;;;;;5075277;28;20445;-72
2021/04/18 05:23:23;;;;;;;32.30;29.53;;;;;;;;;;5075239;28;20416;-72
2021/04/18 05:25:50;;;;;;;31.07;28.47;;;;;;;;;;5075107;28;20766;-72
2021/04/18 05:28:17;;;;;;;32.23;29.17;;;;;;;;;;5074910;28;20427;-72
2021/04/18 05:30:43;;;;;;;28.80;26.57;;;;;;;;;;5074580;28;20416;-72
2021/04/18 05:33:10;;;;;;;30.70;28.40;;;;;;;;;;5074080;28;20456;-72
2021/04/18 05:35:37;;;;;;;30.00;27.80;;;;;;;;;;5074631;28;20417;-72
2021/04/18 05:38:04;;;;;;;30.60;28.30;;;;;;;;;;5074891;28;20420;-72
2021/04/18 05:40:32;;;;;;;29.97;27.87;;;;;;;;;;5074671;28;20434;-71
2021/04/18 05:42:59;;;;;;;30.80;28.17;;;;;;;;;;5074346;28;20424;-71
2021/04/18 05:45:26;;;;;;;28.53;26.23;;;;;;;;;;5074459;28;20411;-72
2021/04/18 05:47:53;;;;;;;31.43;28.17;;;;;;;;;;5074002;28;20423;-72
2021/04/18 05:50:20;;;;;;;30.30;28.00;;;;;;;;;;5074728;28;20441;-72
2021/04/18 05:52:47;;;;;;;30.20;28.00;;;;;;;;;;5074448;28;20411;-72
2021/04/18 05:55:14;;;;;;;30.10;27.53;;;;;;;;;;5073996;28;20457;-72
2021/04/18 05:57:42;;;;;;;29.17;26.97;;;;;;;;;;5074071;28;20419;-72
2021/04/18 06:00:09;;;;;;;29.83;27.50;;;;;;;;;;5074479;28;20416;-72
2021/04/18 06:02:36;;;;;;;29.50;27.23;;;;;;;;;;5073997;28;20412;-71
2021/04/18 06:05:03;;;;;;;29.03;27.13;;;;;;;;;;5073766;28;20449;-72
2021/04/18 06:07:30;;;;;;;30.17;27.80;;;;;;;;;;5074247;28;20827;-71
2021/04/18 06:09:57;;;;;;;27.93;25.97;;;;;;;;;;5074088;28;20430;-72
2021/04/18 06:12:24;;;;;;;31.73;29.40;;;;;;;;;;5075517;28;20441;-72
2021/04/18 06:14:53;;;;;;;30.07;27.80;;;;;;;;;;5073844;28;20519;-72
2021/04/18 06:17:20;;;;;;;29.40;26.90;;;;;;;;;;5074005;28;20495;-72
2021/04/18 06:19:47;;;;;;;27.50;25.70;;;;;;;;;;5074427;28;20466;-71
2021/04/18 06:22:13;;;;;;;28.33;26.43;;;;;;;;;;5074718;28;20415;-70
2021/04/18 06:24:40;;;;;;;29.20;27.00;;;;;;;;;;5073684;28;20440;-70
2021/04/18 06:27:08;;;;;;;29.87;27.77;;;;;;;;;;5073530;28;20441;-70
2021/04/18 06:29:34;;;;;;;30.70;28.30;;;;;;;;;;5073921;28;20408;-70
2021/04/18 06:32:02;;;;;;;30.63;28.23;;;;;;;;;;5073650;28;20881;-70
2021/04/18 06:34:29;;;;;;;28.63;26.53;;;;;;;;;;5073551;28;20488;-71
2021/04/18 06:36:56;;;;;;;28.73;26.73;;;;;;;;;;5073909;28;20442;-71
2021/04/18 06:39:23;;;;;;;28.40;26.20;;;;;;;;;;5073842;28;20427;-71
2021/04/18 06:41:52;;;;;;;29.30;27.10;;;;;;;;;;5073431;28;20498;-70
2021/04/18 06:44:20;;;;;;;30.13;27.77;;;;;;;;;;5073293;28;20466;-70
2021/04/18 06:46:48;;;;;;;29.60;27.30;;;;;;;;;;5073437;28;20526;-71
2021/04/18 06:49:16;;;;;;;29.73;27.47;;;;;;;;;;5074367;28;20529;-70
2021/04/18 06:51:44;;;;;;;29.97;27.27;;;;;;;;;;5073728;28;20430;-70
2021/04/18 06:54:11;;;;;;;29.63;27.53;;;;;;;;;;5073286;28;20463;-70
2021/04/18 06:56:38;;;;;;;29.80;27.50;;;;;;;;;;5073154;28;20485;-71
2021/04/18 06:59:05;;;;;;;28.70;26.50;;;;;;;;;;5073938;28;20615;-71
2021/04/18 07:01:32;;;;;;;28.67;26.40;;;;;;;;;;5073321;28;20477;-70
2021/04/18 07:04:09;;;;;;;29.60;27.50;;;;;;;;;;5073362;28;20414;-71
2021/04/18 07:06:38;;;;;;;29.80;27.50;;;;;;;;;;5073135;28;20404;-71
2021/04/18 07:09:05;;;;;;;29.27;26.90;;;;;;;;;;5073603;28;20487;-70
2021/04/18 07:11:42;;;;;;;29.47;26.77;;;;;;;;;;5073226;28;20943;-71
2021/04/18 07:14:19;;;;;;;28.97;26.60;;;;;;;;;;5073088;28;20455;-70
2021/04/18 07:16:46;;;;;;;28.17;26.17;;;;;;;;;;5073182;28;20909;-71
2021/04/18 07:19:19;;;;;;;28.87;26.87;;;;;;;;;;5073111;28;20416;-70
2021/04/18 07:21:47;;;;;;;28.47;26.53;;;;;;;;;;5073079;28;20451;-70
2021/04/18 07:24:14;;;;;;;28.77;26.23;;;;;;;;;;5073353;28;20426;-70
2021/04/18 07:26:41;;;;;;;27.37;25.23;;;;;;;;;;5073225;28;20412;-70
2021/04/18 07:29:12;;;;;;;27.27;25.37;;;;;;;;;;5073406;28;20406;-70
2021/04/18 07:31:39;;;;;;;27.73;25.80;;;;;;;;;;5072723;28;20946;-70
2021/04/18 07:34:07;;;;;;;27.50;25.43;;;;;;;;;;5072995;28;20464;-70
2021/04/18 07:36:35;;;;;;;28.73;26.53;;;;;;;;;;5073247;28;20413;-70
2021/04/18 07:39:04;;;;;;;27.03;25.23;;;;;;;;;;5073062;28;20473;-70
2021/04/18 07:41:31;;;;;;;29.17;26.50;;;;;;;;;;5073266;28;20433;-70
2021/04/18 07:43:58;;;;;;;26.33;24.30;;;;;;;;;;5072066;28;20412;-71
2021/04/18 07:46:25;;;;;;;27.37;25.50;;;;;;;;;;5073237;28;20453;-71
2021/04/18 07:48:51;;;;;;;28.60;26.37;;;;;;;;;;5071565;28;20482;-71
2021/04/18 07:51:20;;;;;;;27.83;25.80;;;;;;;;;;5071807;28;20774;-71
2021/04/18 07:53:47;;;;;;;29.03;27.13;;;;;;;;;;5073050;28;20531;-71
2021/04/18 07:56:16;;;;;;;28.60;26.50;;;;;;;;;;5075850;28;20443;-71
2021/04/18 07:58:44;;;;;;;28.03;26.20;;;;;;;;;;5076379;28;20441;-70
2021/04/18 08:01:11;;;;;;;30.77;28.27;;;;;;;;;;5077451;28;20408;-70
2021/04/18 08:03:41;;;;;;;28.87;26.67;;;;;;;;;;5076196;28;20420;-70
2021/04/18 08:06:08;;;;;;;29.53;27.53;;;;;;;;;;5076782;28;20822;-70
2021/04/18 08:08:53;;;;;;;29.33;27.23;;;;;;;;;;5076434;28;20492;-70
2021/04/18 08:11:22;;;;;;;31.73;29.27;;;;;;;;;;5076472;28;20419;-70
2021/04/18 08:13:50;;;;;;;29.33;27.37;;;;;;;;;;5076066;28;20456;-69
2021/04/18 08:16:25;;;;;;;30.53;28.53;;;;;;;;;;5076032;28;20409;-70
2021/04/18 08:18:52;;;;;;;29.20;27.10;;;;;;;;;;5076617;28;20476;-70
2021/04/18 08:21:24;;;;;;;30.30;28.13;;;;;;;;;;5076050;28;20879;-70
2021/04/18 08:23:51;;;;;;;30.80;28.40;;;;;;;;;;5076265;28;20770;-70
2021/04/18 08:26:18;;;;;;;30.60;28.40;;;;;;;;;;5076336;28;20420;-70
2021/04/18 08:29:06;;;;;;;29.87;27.87;;;;;;;;;;5075873;28;20408;-71
2021/04/18 08:31:33;;;;;;;29.87;27.87;;;;;;;;;;5076048;28;20417;-70
2021/04/18 08:34:00;;;;;;;29.77;27.47;;;;;;;;;;5075667;28;20509;-70
2021/04/18 08:36:29;;;;;;;30.93;28.47;;;;;;;;;;5076020;28;20421;-70
2021/04/18 08:39:11;;;;;;;30.97;28.70;;;;;;;;;;5074544;28;20778;-71
2021/04/18 08:41:41;;;;;;;29.73;27.63;;;;;;;;;;5075468;28;20749;-70
2021/04/18 08:44:15;;;;;;;30.70;28.27;;;;;;;;;;5081155;28;20464;-70
2021/04/18 08:46:42;;;;;;;30.30;28.20;;;;;;;;;;5085688;28;20884;-70
2021/04/18 08:49:10;;;;;;;30.80;28.40;;;;;;;;;;5083854;28;20890;-71
2021/04/18 08:51:37;;;;;;;31.10;28.83;;;;;;;;;;5082027;28;20450;-71
2021/04/18 08:54:04;;;;;;;31.40;28.93;;;;;;;;;;5077714;28;20456;-70
2021/04/18 08:56:44;;;;;;;30.40;27.87;;;;;;;;;;5082720;28;20469;-71
2021/04/18 08:59:11;;;;;;;31.50;29.10;;;;;;;;;;5075565;28;20412;-70
2021/04/18 09:01:38;;;;;;;29.80;27.73;;;;;;;;;;5075287;28;20916;-71
2021/04/18 09:04:10;;;;;;;30.00;27.73;;;;;;;;;;5075462;28;20413;-71
2021/04/18 09:06:37;;;;;;;30.30;28.20;;;;;;;;;;5075149;28;20939;-70
2021/04/18 09:09:05;;;;;;;31.07;28.57;;;;;;;;;;5075064;28;20920;-70
2021/04/18 09:11:37;;;;;;;29.63;27.30;;;;;;;;;;5075057;28;20424;-71
2021/04/18 09:14:04;;;;;;;30.73;28.30;;;;;;;;;;5075327;28;20876;-71
2021/04/18 09:16:32;;;;;;;29.87;27.53;;;;;;;;;;5074920;28;20408;-70
2021/04/18 09:19:13;;;;;;;30.03;27.90;;;;;;;;;;5080878;28;20430;-70
2021/04/18 09:21:41;;;;;;;29.83;27.60;;;;;;;;;;5082806;28;20434;-70
2021/04/18 09:24:08;;;;;;;33.03;30.53;;;;;;;;;;5084378;28;20429;-71
2021/04/18 09:26:35;;;;;;;31.77;29.50;;;;;;;;;;5084801;28;20429;-70
2021/04/18 09:29:09;;;;;;;31.97;29.53;;;;;;;;;;5092292;28;20437;-71
2021/04/18 09:31:36;;;;;;;31.30;29.20;;;;;;;;;;5095152;28;20445;-71
2021/04/18 09:34:04;;;;;;;31.77;29.13;;;;;;;;;;5094776;28;20886;-71
2021/04/18 09:36:31;;;;;;;31.13;29.03;;;;;;;;;;5095306;28;20411;-71
2021/04/18 09:39:00;;;;;;;32.67;30.27;;;;;;;;;;5095098;28;20451;-70
2021/04/18 09:41:29;;;;;;;32.00;29.60;;;;;;;;;;5095026;28;20442;-71
2021/04/18 09:43:57;;;;;;;29.40;27.40;;;;;;;;;;5094962;28;20423;-71
2021/04/18 09:46:24;;;;;;;29.77;27.67;;;;;;;;;;5094550;28;20487;-71
2021/04/18 09:48:57;;;;;;;30.60;28.47;;;;;;;;;;5094877;28;20768;-71
2021/04/18 09:51:24;;;;;;;29.53;27.27;;;;;;;;;;5094519;28;20411;-71
2021/04/18 09:54:02;;;;;;;30.73;28.47;;;;;;;;;;5093494;28;20520;-71
2021/04/18 09:56:29;;;;;;;31.10;28.80;;;;;;;;;;5094183;28;20967;-71
2021/04/18 09:58:56;;;;;;;30.70;28.33;;;;;;;;;;5094630;28;20408;-70
2021/04/18 10:01:24;;;;;;;30.60;28.50;;;;;;;;;;5094348;28;20443;-74
2021/04/18 10:03:50;;;;;;;31.90;29.40;;;;;;;;;;5094062;28;20495;-70
2021/04/18 10:06:17;;;;;;;31.80;29.53;;;;;;;;;;5091595;28;20423;-70
2021/04/18 10:08:53;;;;;;;31.43;28.90;;;;;;;;;;5093839;28;20420;-70
2021/04/18 10:11:22;;;;;;;31.20;28.50;;;;;;;;;;5093952;28;20472;-71
2021/04/18 10:13:50;;;;;;;31.97;29.70;;;;;;;;;;5092859;28;20451;-71
2021/04/18 10:16:18;;;;;;;31.17;28.97;;;;;;;;;;5093879;28;20420;-71
2021/04/18 10:19:00;;;;;;;35.13;32.27;;;;;;;;;;5093903;28;20405;-71
2021/04/18 10:21:27;;;;;;;30.97;28.57;;;;;;;;;;5093705;28;20905;-70
2021/04/18 10:23:54;;;;;;;32.47;30.10;;;;;;;;;;5093217;28;20783;-70
2021/04/18 10:26:22;;;;;;;30.33;28.13;;;;;;;;;;5091460;28;20464;-70
2021/04/18 10:28:50;;;;;;;33.33;30.47;;;;;;;;;;5093963;28;20427;-70
2021/04/18 10:31:18;;;;;;;31.20;28.80;;;;;;;;;;5093831;28;20440;-74
2021/04/18 10:33:45;;;;;;;30.17;27.87;;;;;;;;;;5093823;28;20809;-75
2021/04/18 10:36:12;;;;;;;30.77;28.37;;;;;;;;;;5093718;28;20415;-75
2021/04/18 10:38:39;;;;;;;30.47;28.30;;;;;;;;;;5094055;28;20898;-75
2021/04/18 10:41:08;;;;;;;31.93;29.50;;;;;;;;;;5093658;28;20416;-75
2021/04/18 10:43:36;;;;;;;30.77;28.57;;;;;;;;;;5093762;28;20962;-75
2021/04/18 10:46:03;;;;;;;30.27;28.17;;;;;;;;;;5094008;28;20438;-74
2021/04/18 10:48:30;;;;;;;31.20;28.73;;;;;;;;;;5093490;28;20409;-74
2021/04/18 10:50:57;;;;;;;30.50;28.27;;;;;;;;;;5093559;28;20449;-74
2021/04/18 10:53:25;;;;;;;31.43;29.23;;;;;;;;;;5093874;28;20816;-74
2021/04/18 10:55:52;;;;;;;31.30;28.67;;;;;;;;;;5093334;28;20559;-71
2021/04/18 10:58:19;;;;;;;31.77;29.53;;;;;;;;;;5093570;28;20480;-71
2021/04/18 11:00:47;;;;;;;31.20;28.60;;;;;;;;;;5092376;28;20933;-71
2021/04/18 11:03:14;;;;;;;32.67;29.97;;;;;;;;;;5093602;28;20401;-71
2021/04/18 11:05:41;;;;;;;35.40;32.70;;;;;;;;;;5093700;28;20416;-71
2021/04/18 11:08:10;;;;;;;32.63;30.43;;;;;;;;;;5093369;28;20460;-71
2021/04/18 11:10:37;;;;;;;32.97;30.63;;;;;;;;;;5093632;28;20528;-75
2021/04/18 11:13:04;;;;;;;32.07;29.67;;;;;;;;;;5093776;28;20441;-70
2021/04/18 11:15:31;;;;;;;33.10;30.80;;;;;;;;;;5093650;28;20416;-71
2021/04/18 11:17:59;;;;;;;32.67;30.23;;;;;;;;;;5092974;28;20914;-70
2021/04/18 11:20:26;;;;;;;32.70;30.40;;;;;;;;;;5093342;28;20929;-71
2021/04/18 11:22:53;;;;;;;33.80;31.43;;;;;;;;;;5083415;28;20441;-71
2021/04/18 11:25:20;;;;;;;33.57;31.17;;;;;;;;;;5073352;28;20891;-71
2021/04/18 11:27:47;;;;;;;32.13;29.83;;;;;;;;;;5072797;28;20902;-71
2021/04/18 11:30:16;;;;;;;32.03;29.83;;;;;;;;;;5074609;28;20795;-71
2021/04/18 11:32:42;;;;;;;32.13;29.87;;;;;;;;;;5076902;28;20437;-71
2021/04/18 11:35:11;;;;;;;32.23;29.90;;;;;;;;;;5076892;28;20483;-71
2021/04/18 11:37:39;;;;;;;31.53;29.20;;;;;;;;;;5076921;28;20404;-72
2021/04/18 11:40:06;;;;;;;31.93;29.33;;;;;;;;;;5076957;28;20862;-71
2021/04/18 11:42:33;;;;;;;31.83;29.23;;;;;;;;;;5077064;28;20419;-71
2021/04/18 11:45:01;;;;;;;31.20;29.00;;;;;;;;;;5077063;28;20442;-71
2021/04/18 11:47:28;;;;;;;31.87;29.37;;;;;;;;;;5076997;28;20421;-71
2021/04/18 11:49:55;;;;;;;33.20;30.73;;;;;;;;;;5077140;28;20413;-71
2021/04/18 11:52:23;;;;;;;32.03;29.73;;;;;;;;;;5075414;28;20773;-71
2021/04/18 11:54:50;;;;;;;33.77;30.93;;;;;;;;;;5076473;28;20456;-71
2021/04/18 11:57:17;;;;;;;32.70;30.43;;;;;;;;;;5075099;28;20457;-71
2021/04/18 11:59:43;;;;;;;30.70;28.70;;;;;;;;;;5076752;28;20766;-71
2021/04/18 12:02:11;;;;;;;33.13;30.73;;;;;;;;;;5076667;28;20409;-75
2021/04/18 12:04:38;;;;;;;32.73;30.20;;;;;;;;;;5076327;28;20438;-75
2021/04/18 12:07:04;;;;;;;34.40;31.80;;;;;;;;;;5076867;28;20460;-74
2021/04/18 12:09:33;;;;;;;32.50;30.20;;;;;;;;;;5076311;28;20409;-76
2021/04/18 12:12:00;;;;;;;31.23;29.03;;;;;;;;;;5075420;28;20414;-74
2021/04/18 12:14:26;;;;;;;34.40;31.80;;;;;;;;;;5077007;28;20496;-73
2021/04/18 12:16:54;;;;;;;31.30;29.10;;;;;;;;;;5076484;28;20434;-75
2021/04/18 12:19:21;;;;;;;31.87;29.77;;;;;;;;;;5075208;28;20414;-75
2021/04/18 12:21:48;;;;;;;32.50;30.30;;;;;;;;;;5058457;28;20414;-75
2021/04/18 12:24:15;;;;;;;32.80;30.50;;;;;;;;;;5075184;28;20416;-75
2021/04/18 12:26:43;;;;;;;31.53;29.20;;;;;;;;;;5076141;28;20409;-71
2021/04/18 12:29:10;;;;;;;33.33;30.47;;;;;;;;;;5076694;28;20524;-70
2021/04/18 12:31:40;;;;;;;32.03;29.83;;;;;;;;;;5076346;28;20471;-71
2021/04/18 12:34:07;;;;;;;32.53;30.30;;;;;;;;;;5075702;28;20849;-74
2021/04/18 12:36:36;;;;;;;33.27;31.00;;;;;;;;;;5075435;28;20783;-77
2021/04/18 12:39:03;;;;;;;32.60;30.30;;;;;;;;;;5078527;28;20429;-75
2021/04/18 12:41:30;;;;;;;32.60;30.10;;;;;;;;;;5085561;28;20939;-76
2021/04/18 12:43:58;;;;;;;32.23;30.03;;;;;;;;;;5086659;28;20913;-75
2021/04/18 12:46:25;;;;;;;33.07;30.57;;;;;;;;;;5084972;28;20411;-72
2021/04/18 12:48:52;;;;;;;32.70;30.20;;;;;;;;;;5086206;28;20407;-70
2021/04/18 12:51:19;;;;;;;33.30;30.87;;;;;;;;;;5084337;28;20417;-78
2021/04/18 12:53:46;;;;;;;33.30;30.90;;;;;;;;;;5095303;28;20451;-77
2021/04/18 12:56:12;;;;;;;33.17;30.80;;;;;;;;;;5095772;28;20510;-77
2021/04/18 12:58:40;;;;;;;33.60;31.30;;;;;;;;;;5095972;28;20770;-77
2021/04/18 13:01:08;;;;;;;32.37;30.10;;;;;;;;;;5095950;28;20432;-79
2021/04/18 13:03:35;;;;;;;32.20;30.00;;;;;;;;;;5078578;28;20803;-71
2021/04/18 13:06:02;;;;;;;32.97;30.67;;;;;;;;;;5075299;28;20424;-72
2021/04/18 13:08:28;;;;;;;33.70;31.40;;;;;;;;;;5075241;28;20422;-70
2021/04/18 13:10:55;;;;;;;34.37;31.70;;;;;;;;;;5075020;28;21274;-70
2021/04/18 13:13:23;;;;;;;32.40;30.10;;;;;;;;;;5074976;28;20426;-71
2021/04/18 13:15:50;;;;;;;33.93;31.23;;;;;;;;;;5075290;28;20416;-71
2021/04/18 13:18:18;;;;;;;31.97;29.63;;;;;;;;;;5073989;28;20446;-70
2021/04/18 13:20:45;;;;;;;32.20;29.80;;;;;;;;;;5075191;28;20414;-71
2021/04/18 13:23:11;;;;;;;31.93;29.60;;;;;;;;;;5074881;28;20444;-71
2021/04/18 13:25:39;;;;;;;33.10;30.70;;;;;;;;;;5074519;28;20526;-71
2021/04/18 13:28:06;;;;;;;32.20;30.10;;;;;;;;;;5074296;28;20410;-70
2021/04/18 13:30:33;;;;;;;31.63;29.33;;;;;;;;;;5074732;28;20421;-71
2021/04/18 13:33:00;;;;;;;31.77;29.60;;;;;;;;;;5074691;28;20452;-71
2021/04/18 13:35:29;;;;;;;31.80;29.60;;;;;;;;;;5090083;28;20467;-71
2021/04/18 13:37:56;;;;;;;31.67;29.43;;;;;;;;;;5094928;28;20432;-70
2021/04/18 13:40:24;;;;;;;33.70;31.20;;;;;;;;;;5094955;28;20417;-70
2021/04/18 13:42:51;;;;;;;33.33;30.97;;;;;;;;;;5094508;28;20418;-70
2021/04/18 13:45:19;;;;;;;31.30;29.07;;;;;;;;;;5094561;28;20425;-70
2021/04/18 13:47:46;;;;;;;31.77;29.37;;;;;;;;;;5094496;28;20456;-70
2021/04/18 13:50:14;;;;;;;31.23;29.23;;;;;;;;;;5094697;28;20417;-70
2021/04/18 13:52:45;;;;;;;31.43;29.17;;;;;;;;;;5092964;28;20762;-70
2021/04/18 13:55:13;;;;;;;33.63;30.90;;;;;;;;;;5092291;28;20478;-70
2021/04/18 13:57:40;;;;;;;31.10;29.00;;;;;;;;;;5094445;28;20542;-70
2021/04/18 14:00:08;;;;;;;30.50;28.53;;;;;;;;;;5094137;28;20427;-70
2021/04/18 14:02:35;;;;;;;32.27;29.97;;;;;;;;;;5094528;28;20438;-70
2021/04/18 14:05:02;;;;;;;31.30;29.10;;;;;;;;;;5094413;28;20418;-70
2021/04/18 14:07:29;;;;;;;30.87;28.67;;;;;;;;;;5093853;28;20493;-70
2021/04/18 14:09:57;;;;;;;30.63;28.53;;;;;;;;;;5094064;28;20442;-70
2021/04/18 14:12:24;;;;;;;30.20;28.00;;;;;;;;;;5094225;28;20850;-70
2021/04/18 14:14:55;;;;;;;30.40;28.10;;;;;;;;;;5093806;28;20986;-70
2021/04/18 14:17:22;;;;;;;29.93;27.77;;;;;;;;;;5093693;28;20462;-71
2021/04/18 14:19:52;;;;;;;31.97;29.67;;;;;;;;;;5093886;28;21022;-70